Virgil, South Dakota
Current Conditions -  °F | °C
As of 5:55 AM on Monday 22 Dec 2014 (Local Time) from KHON Reporting Station
Haze Haze  
Wind Chill: 27°   Ceiling: 300
Heat Index: 33°   Visibility: 3mi
Dew Point: 32°   Wind: 7mph
Humidity: 96%   Direction: 310°NW
Pressure: 29.43"   Gusts: NA
Location:  44.29°N, 98.42°W
Report Text: KHON 221155Z AUTO 31006KT 3SM BR BKN003 OVC080 01/00 A2943 RMK AO2 CIG 002V007 SLP977 T00060000 10028 20006 58005
Loading
Personal Weather Stations






























Interactive Weather Map New forecast layout! Learn more

10-Day Weather Forecast

Advertisements
Track Severe Weather on mobile